< < Back
Terminal Aerodrome Forecast


Current Version              Previous Versions:   1  2  3  4  5  6  7  8  9  

Terminal Aerodrome Forecast

832
FTUS42 KGSP 282320
TAFAND
TAF
KAND 282320Z 2900/2924 13005KT P6SM FEW050 BKN250
     FM290300 08004KT P6SM BKN240
     FM290900 07003KT P6SM SCT045 BKN240
     FM291700 11005KT P6SM BKN045=



Latest METAR

015
SAUS70 KWBC 290300 RRD
MTRAND
METAR KAND 290256Z AUTO 00000KT 10SM CLR 22/19 A3018 RMK AO2 SLP211
T02170189 51019


USA.gov is the U.S. government's official web portal to all federal, state and local government web resources and services.